<?xml version="1.0" encoding="UTF-8" standalone="no" ?>
<gpx xmlns="http://www.topografix.com/GPX/1/1" xmlns:xsi="http://www.w3.org/2001/XMLSchema-instance" xsi:schemaLocation="http://www.topografix.com/GPX/1/1 http://www.topografix.com/GPX/1/1/gpx.xsd" version="1.1" creator="VisuGPX - https://www.visugpx.com">
  <metadata>
    <name>Vallée Blanche - Envers du Plan</name>
    <desc><![CDATA[13 avril 2014
Jusqu\'aux escaliers (de justesse)]]></desc>
  </metadata>
  <trk>
    <name><![CDATA[MapExplorer Track]]></name>
    <trkseg>
      <trkpt lat="45.87893" lon="6.88842">
        <ele>3819</ele>
        <time>2014-04-13T10:02:33</time>
      </trkpt>
      <trkpt lat="45.87913" lon="6.88858">
        <ele>3783</ele>
        <time>2014-04-13T10:05:00</time>
      </trkpt>
      <trkpt lat="45.87931" lon="6.88878">
        <ele>3783</ele>
        <time>2014-04-13T10:06:05</time>
      </trkpt>
      <trkpt lat="45.87946" lon="6.88902">
        <ele>3768</ele>
        <time>2014-04-13T10:07:37</time>
      </trkpt>
      <trkpt lat="45.87958" lon="6.8893">
        <ele>3760</ele>
        <time>2014-04-13T10:08:30</time>
      </trkpt>
      <trkpt lat="45.8797" lon="6.88958">
        <ele>3751</ele>
        <time>2014-04-13T10:09:21</time>
      </trkpt>
      <trkpt lat="45.8799" lon="6.88972">
        <ele>3739</ele>
        <time>2014-04-13T10:10:18</time>
      </trkpt>
      <trkpt lat="45.88012" lon="6.88979">
        <ele>3742</ele>
        <time>2014-04-13T10:12:22</time>
      </trkpt>
      <trkpt lat="45.88006" lon="6.89011">
        <ele>3730</ele>
        <time>2014-04-13T10:27:36</time>
      </trkpt>
      <trkpt lat="45.88" lon="6.89043">
        <ele>3730</ele>
        <time>2014-04-13T10:28:12</time>
      </trkpt>
      <trkpt lat="45.8799" lon="6.89073">
        <ele>3726</ele>
        <time>2014-04-13T10:28:20</time>
      </trkpt>
      <trkpt lat="45.87984" lon="6.89105">
        <ele>3721</ele>
        <time>2014-04-13T10:28:26</time>
      </trkpt>
      <trkpt lat="45.8798" lon="6.89141">
        <ele>3717</ele>
        <time>2014-04-13T10:28:32</time>
      </trkpt>
      <trkpt lat="45.87974" lon="6.89176">
        <ele>3715</ele>
        <time>2014-04-13T10:28:36</time>
      </trkpt>
      <trkpt lat="45.8797" lon="6.89211">
        <ele>3711</ele>
        <time>2014-04-13T10:28:42</time>
      </trkpt>
      <trkpt lat="45.87969" lon="6.89245">
        <ele>3707</ele>
        <time>2014-04-13T10:28:50</time>
      </trkpt>
      <trkpt lat="45.87972" lon="6.89283">
        <ele>3699</ele>
        <time>2014-04-13T10:28:55</time>
      </trkpt>
      <trkpt lat="45.87977" lon="6.8932">
        <ele>3694</ele>
        <time>2014-04-13T10:29:00</time>
      </trkpt>
      <trkpt lat="45.87984" lon="6.89357">
        <ele>3689</ele>
        <time>2014-04-13T10:29:04</time>
      </trkpt>
      <trkpt lat="45.87989" lon="6.89389">
        <ele>3685</ele>
        <time>2014-04-13T10:29:10</time>
      </trkpt>
      <trkpt lat="45.88002" lon="6.89417">
        <ele>3679</ele>
        <time>2014-04-13T10:29:23</time>
      </trkpt>
      <trkpt lat="45.88018" lon="6.89446">
        <ele>3673</ele>
        <time>2014-04-13T10:29:31</time>
      </trkpt>
      <trkpt lat="45.88034" lon="6.89476">
        <ele>3667</ele>
        <time>2014-04-13T10:29:37</time>
      </trkpt>
      <trkpt lat="45.8805" lon="6.89504">
        <ele>3662</ele>
        <time>2014-04-13T10:29:42</time>
      </trkpt>
      <trkpt lat="45.88064" lon="6.89531">
        <ele>3656</ele>
        <time>2014-04-13T10:29:47</time>
      </trkpt>
      <trkpt lat="45.88073" lon="6.89567">
        <ele>3649</ele>
        <time>2014-04-13T10:29:54</time>
      </trkpt>
      <trkpt lat="45.88052" lon="6.89582">
        <ele>3642</ele>
        <time>2014-04-13T10:31:04</time>
      </trkpt>
      <trkpt lat="45.88032" lon="6.89597">
        <ele>3641</ele>
        <time>2014-04-13T10:31:08</time>
      </trkpt>
      <trkpt lat="45.88029" lon="6.89631">
        <ele>3640</ele>
        <time>2014-04-13T10:31:12</time>
      </trkpt>
      <trkpt lat="45.88017" lon="6.89668">
        <ele>3636</ele>
        <time>2014-04-13T10:31:16</time>
      </trkpt>
      <trkpt lat="45.88024" lon="6.89699">
        <ele>3633</ele>
        <time>2014-04-13T10:31:20</time>
      </trkpt>
      <trkpt lat="45.88035" lon="6.89729">
        <ele>3631</ele>
        <time>2014-04-13T10:31:24</time>
      </trkpt>
      <trkpt lat="45.88031" lon="6.89769">
        <ele>3628</ele>
        <time>2014-04-13T10:31:29</time>
      </trkpt>
      <trkpt lat="45.88029" lon="6.89813">
        <ele>3621</ele>
        <time>2014-04-13T10:31:35</time>
      </trkpt>
      <trkpt lat="45.8804" lon="6.89845">
        <ele>3618</ele>
        <time>2014-04-13T10:31:39</time>
      </trkpt>
      <trkpt lat="45.8805" lon="6.89879">
        <ele>3612</ele>
        <time>2014-04-13T10:31:43</time>
      </trkpt>
      <trkpt lat="45.88062" lon="6.89915">
        <ele>3607</ele>
        <time>2014-04-13T10:31:47</time>
      </trkpt>
      <trkpt lat="45.88071" lon="6.89947">
        <ele>3601</ele>
        <time>2014-04-13T10:31:50</time>
      </trkpt>
      <trkpt lat="45.88085" lon="6.89976">
        <ele>3599</ele>
        <time>2014-04-13T10:31:53</time>
      </trkpt>
      <trkpt lat="45.88096" lon="6.90008">
        <ele>3592</ele>
        <time>2014-04-13T10:31:56</time>
      </trkpt>
      <trkpt lat="45.88096" lon="6.90041">
        <ele>3590</ele>
        <time>2014-04-13T10:32:00</time>
      </trkpt>
      <trkpt lat="45.88077" lon="6.90059">
        <ele>3558</ele>
        <time>2014-04-13T10:34:27</time>
      </trkpt>
      <trkpt lat="45.88077" lon="6.90095">
        <ele>3551</ele>
        <time>2014-04-13T10:34:33</time>
      </trkpt>
      <trkpt lat="45.88088" lon="6.90125">
        <ele>3546</ele>
        <time>2014-04-13T10:34:37</time>
      </trkpt>
      <trkpt lat="45.8808" lon="6.90159">
        <ele>3540</ele>
        <time>2014-04-13T10:34:41</time>
      </trkpt>
      <trkpt lat="45.88058" lon="6.90183">
        <ele>3535</ele>
        <time>2014-04-13T10:34:45</time>
      </trkpt>
      <trkpt lat="45.88038" lon="6.90201">
        <ele>3531</ele>
        <time>2014-04-13T10:34:49</time>
      </trkpt>
      <trkpt lat="45.88022" lon="6.90232">
        <ele>3524</ele>
        <time>2014-04-13T10:34:55</time>
      </trkpt>
      <trkpt lat="45.88033" lon="6.90266">
        <ele>3515</ele>
        <time>2014-04-13T10:35:02</time>
      </trkpt>
      <trkpt lat="45.88041" lon="6.90297">
        <ele>3510</ele>
        <time>2014-04-13T10:35:10</time>
      </trkpt>
      <trkpt lat="45.88053" lon="6.90326">
        <ele>3476</ele>
        <time>2014-04-13T10:37:55</time>
      </trkpt>
      <trkpt lat="45.88071" lon="6.9035">
        <ele>3453</ele>
        <time>2014-04-13T10:38:20</time>
      </trkpt>
      <trkpt lat="45.88075" lon="6.90383">
        <ele>3440</ele>
        <time>2014-04-13T10:38:28</time>
      </trkpt>
      <trkpt lat="45.88091" lon="6.9041">
        <ele>3432</ele>
        <time>2014-04-13T10:38:32</time>
      </trkpt>
      <trkpt lat="45.88105" lon="6.90436">
        <ele>3425</ele>
        <time>2014-04-13T10:38:37</time>
      </trkpt>
      <trkpt lat="45.88097" lon="6.90471">
        <ele>3416</ele>
        <time>2014-04-13T10:40:24</time>
      </trkpt>
      <trkpt lat="45.88098" lon="6.90503">
        <ele>3404</ele>
        <time>2014-04-13T10:41:47</time>
      </trkpt>
      <trkpt lat="45.88113" lon="6.90529">
        <ele>3395</ele>
        <time>2014-04-13T10:41:53</time>
      </trkpt>
      <trkpt lat="45.88117" lon="6.90562">
        <ele>3382</ele>
        <time>2014-04-13T10:42:40</time>
      </trkpt>
      <trkpt lat="45.881" lon="6.90586">
        <ele>3371</ele>
        <time>2014-04-13T10:42:48</time>
      </trkpt>
      <trkpt lat="45.88076" lon="6.90588">
        <ele>3356</ele>
        <time>2014-04-13T10:42:59</time>
      </trkpt>
      <trkpt lat="45.88053" lon="6.90605">
        <ele>3348</ele>
        <time>2014-04-13T10:43:10</time>
      </trkpt>
      <trkpt lat="45.88048" lon="6.90638">
        <ele>3338</ele>
        <time>2014-04-13T10:43:44</time>
      </trkpt>
      <trkpt lat="45.88054" lon="6.90674">
        <ele>3333</ele>
        <time>2014-04-13T10:43:49</time>
      </trkpt>
      <trkpt lat="45.88051" lon="6.90708">
        <ele>3319</ele>
        <time>2014-04-13T10:45:56</time>
      </trkpt>
      <trkpt lat="45.88026" lon="6.90718">
        <ele>3309</ele>
        <time>2014-04-13T10:46:05</time>
      </trkpt>
      <trkpt lat="45.88007" lon="6.90699">
        <ele>3301</ele>
        <time>2014-04-13T10:46:12</time>
      </trkpt>
      <trkpt lat="45.8799" lon="6.90722">
        <ele>3288</ele>
        <time>2014-04-13T10:46:25</time>
      </trkpt>
      <trkpt lat="45.87993" lon="6.90758">
        <ele>3281</ele>
        <time>2014-04-13T10:46:45</time>
      </trkpt>
      <trkpt lat="45.87985" lon="6.9079">
        <ele>3270</ele>
        <time>2014-04-13T10:47:54</time>
      </trkpt>
      <trkpt lat="45.87987" lon="6.90824">
        <ele>3261</ele>
        <time>2014-04-13T10:48:01</time>
      </trkpt>
      <trkpt lat="45.88003" lon="6.90852">
        <ele>3247</ele>
        <time>2014-04-13T10:48:54</time>
      </trkpt>
      <trkpt lat="45.8801" lon="6.90884">
        <ele>3242</ele>
        <time>2014-04-13T10:48:59</time>
      </trkpt>
      <trkpt lat="45.88026" lon="6.90915">
        <ele>3238</ele>
        <time>2014-04-13T10:49:03</time>
      </trkpt>
      <trkpt lat="45.88046" lon="6.90954">
        <ele>3238</ele>
        <time>2014-04-13T10:49:06</time>
      </trkpt>
      <trkpt lat="45.88051" lon="6.90988">
        <ele>3234</ele>
        <time>2014-04-13T10:49:08</time>
      </trkpt>
      <trkpt lat="45.88067" lon="6.91026">
        <ele>3235</ele>
        <time>2014-04-13T10:49:11</time>
      </trkpt>
      <trkpt lat="45.88076" lon="6.91062">
        <ele>3234</ele>
        <time>2014-04-13T10:49:14</time>
      </trkpt>
      <trkpt lat="45.88075" lon="6.911">
        <ele>3233</ele>
        <time>2014-04-13T10:49:17</time>
      </trkpt>
      <trkpt lat="45.88079" lon="6.91137">
        <ele>3231</ele>
        <time>2014-04-13T10:49:20</time>
      </trkpt>
      <trkpt lat="45.8808" lon="6.91173">
        <ele>3231</ele>
        <time>2014-04-13T10:49:23</time>
      </trkpt>
      <trkpt lat="45.88089" lon="6.91211">
        <ele>3229</ele>
        <time>2014-04-13T10:49:27</time>
      </trkpt>
      <trkpt lat="45.88082" lon="6.91243">
        <ele>3199</ele>
        <time>2014-04-13T10:50:37</time>
      </trkpt>
      <trkpt lat="45.88102" lon="6.91264">
        <ele>3190</ele>
        <time>2014-04-13T10:50:45</time>
      </trkpt>
      <trkpt lat="45.88089" lon="6.91298">
        <ele>3183</ele>
        <time>2014-04-13T10:50:52</time>
      </trkpt>
      <trkpt lat="45.8809" lon="6.91335">
        <ele>3176</ele>
        <time>2014-04-13T10:50:57</time>
      </trkpt>
      <trkpt lat="45.88088" lon="6.91373">
        <ele>3164</ele>
        <time>2014-04-13T10:51:07</time>
      </trkpt>
      <trkpt lat="45.88078" lon="6.91403">
        <ele>3148</ele>
        <time>2014-04-13T10:51:21</time>
      </trkpt>
      <trkpt lat="45.88088" lon="6.91432">
        <ele>3128</ele>
        <time>2014-04-13T10:51:58</time>
      </trkpt>
      <trkpt lat="45.8808" lon="6.91463">
        <ele>3114</ele>
        <time>2014-04-13T10:52:13</time>
      </trkpt>
      <trkpt lat="45.88058" lon="6.91476">
        <ele>3103</ele>
        <time>2014-04-13T10:52:19</time>
      </trkpt>
      <trkpt lat="45.88045" lon="6.9151">
        <ele>3096</ele>
        <time>2014-04-13T10:52:27</time>
      </trkpt>
      <trkpt lat="45.88038" lon="6.91547">
        <ele>3091</ele>
        <time>2014-04-13T10:52:33</time>
      </trkpt>
      <trkpt lat="45.88036" lon="6.91581">
        <ele>3064</ele>
        <time>2014-04-13T11:00:12</time>
      </trkpt>
      <trkpt lat="45.88047" lon="6.91612">
        <ele>3055</ele>
        <time>2014-04-13T11:00:54</time>
      </trkpt>
      <trkpt lat="45.8807" lon="6.91628">
        <ele>3045</ele>
        <time>2014-04-13T11:01:17</time>
      </trkpt>
      <trkpt lat="45.88068" lon="6.91663">
        <ele>3037</ele>
        <time>2014-04-13T11:01:25</time>
      </trkpt>
      <trkpt lat="45.8808" lon="6.91698">
        <ele>3029</ele>
        <time>2014-04-13T11:01:35</time>
      </trkpt>
      <trkpt lat="45.88098" lon="6.91719">
        <ele>3026</ele>
        <time>2014-04-13T11:01:40</time>
      </trkpt>
      <trkpt lat="45.88119" lon="6.91739">
        <ele>3023</ele>
        <time>2014-04-13T11:01:46</time>
      </trkpt>
      <trkpt lat="45.88103" lon="6.91768">
        <ele>2984</ele>
        <time>2014-04-13T11:04:59</time>
      </trkpt>
      <trkpt lat="45.88083" lon="6.91788">
        <ele>2975</ele>
        <time>2014-04-13T11:05:05</time>
      </trkpt>
      <trkpt lat="45.88079" lon="6.91825">
        <ele>2965</ele>
        <time>2014-04-13T11:05:15</time>
      </trkpt>
      <trkpt lat="45.88076" lon="6.91858">
        <ele>2963</ele>
        <time>2014-04-13T11:05:21</time>
      </trkpt>
      <trkpt lat="45.88062" lon="6.91886">
        <ele>2959</ele>
        <time>2014-04-13T11:05:26</time>
      </trkpt>
      <trkpt lat="45.88064" lon="6.91918">
        <ele>2946</ele>
        <time>2014-04-13T11:06:21</time>
      </trkpt>
      <trkpt lat="45.88083" lon="6.91936">
        <ele>2946</ele>
        <time>2014-04-13T11:06:28</time>
      </trkpt>
      <trkpt lat="45.8808" lon="6.91971">
        <ele>2945</ele>
        <time>2014-04-13T11:06:35</time>
      </trkpt>
      <trkpt lat="45.88073" lon="6.92003">
        <ele>2943</ele>
        <time>2014-04-13T11:06:43</time>
      </trkpt>
      <trkpt lat="45.88062" lon="6.92032">
        <ele>2939</ele>
        <time>2014-04-13T11:07:06</time>
      </trkpt>
      <trkpt lat="45.88065" lon="6.92071">
        <ele>2939</ele>
        <time>2014-04-13T11:07:12</time>
      </trkpt>
      <trkpt lat="45.88056" lon="6.92105">
        <ele>2938</ele>
        <time>2014-04-13T11:07:19</time>
      </trkpt>
      <trkpt lat="45.88039" lon="6.92127">
        <ele>2918</ele>
        <time>2014-04-13T11:08:42</time>
      </trkpt>
      <trkpt lat="45.88029" lon="6.92098">
        <ele>2886</ele>
        <time>2014-04-13T11:10:15</time>
      </trkpt>
      <trkpt lat="45.88016" lon="6.92125">
        <ele>2867</ele>
        <time>2014-04-13T11:11:05</time>
      </trkpt>
      <trkpt lat="45.8801" lon="6.92159">
        <ele>2863</ele>
        <time>2014-04-13T11:11:16</time>
      </trkpt>
      <trkpt lat="45.87992" lon="6.92179">
        <ele>2859</ele>
        <time>2014-04-13T11:11:39</time>
      </trkpt>
      <trkpt lat="45.87971" lon="6.92202">
        <ele>2858</ele>
        <time>2014-04-13T11:11:45</time>
      </trkpt>
      <trkpt lat="45.8797" lon="6.92237">
        <ele>2857</ele>
        <time>2014-04-13T11:12:35</time>
      </trkpt>
      <trkpt lat="45.87994" lon="6.92248">
        <ele>2858</ele>
        <time>2014-04-13T11:12:44</time>
      </trkpt>
      <trkpt lat="45.87984" lon="6.9228">
        <ele>2861</ele>
        <time>2014-04-13T11:12:50</time>
      </trkpt>
      <trkpt lat="45.87958" lon="6.92293">
        <ele>2847</ele>
        <time>2014-04-13T11:13:09</time>
      </trkpt>
      <trkpt lat="45.87935" lon="6.92297">
        <ele>2841</ele>
        <time>2014-04-13T11:13:13</time>
      </trkpt>
      <trkpt lat="45.8791" lon="6.92311">
        <ele>2833</ele>
        <time>2014-04-13T11:13:22</time>
      </trkpt>
      <trkpt lat="45.879" lon="6.92282">
        <ele>2767</ele>
        <time>2014-04-13T11:14:38</time>
      </trkpt>
      <trkpt lat="45.87877" lon="6.92294">
        <ele>2716</ele>
        <time>2014-04-13T11:16:24</time>
      </trkpt>
      <trkpt lat="45.87875" lon="6.9233">
        <ele>2707</ele>
        <time>2014-04-13T11:16:33</time>
      </trkpt>
      <trkpt lat="45.87889" lon="6.92356">
        <ele>2697</ele>
        <time>2014-04-13T11:16:40</time>
      </trkpt>
      <trkpt lat="45.879" lon="6.92386">
        <ele>2688</ele>
        <time>2014-04-13T11:16:50</time>
      </trkpt>
      <trkpt lat="45.87923" lon="6.92401">
        <ele>2679</ele>
        <time>2014-04-13T11:16:57</time>
      </trkpt>
      <trkpt lat="45.87928" lon="6.92435">
        <ele>2673</ele>
        <time>2014-04-13T11:17:03</time>
      </trkpt>
      <trkpt lat="45.87945" lon="6.92463">
        <ele>2666</ele>
        <time>2014-04-13T11:17:10</time>
      </trkpt>
      <trkpt lat="45.87964" lon="6.92486">
        <ele>2657</ele>
        <time>2014-04-13T11:17:17</time>
      </trkpt>
      <trkpt lat="45.87976" lon="6.92515">
        <ele>2635</ele>
        <time>2014-04-13T11:26:52</time>
      </trkpt>
      <trkpt lat="45.87995" lon="6.92535">
        <ele>2624</ele>
        <time>2014-04-13T11:27:05</time>
      </trkpt>
      <trkpt lat="45.88019" lon="6.92539">
        <ele>2621</ele>
        <time>2014-04-13T11:27:15</time>
      </trkpt>
      <trkpt lat="45.88019" lon="6.92572">
        <ele>2613</ele>
        <time>2014-04-13T11:27:25</time>
      </trkpt>
      <trkpt lat="45.88035" lon="6.92601">
        <ele>2608</ele>
        <time>2014-04-13T11:27:39</time>
      </trkpt>
      <trkpt lat="45.88055" lon="6.92616">
        <ele>2607</ele>
        <time>2014-04-13T11:27:51</time>
      </trkpt>
      <trkpt lat="45.88072" lon="6.92638">
        <ele>2606</ele>
        <time>2014-04-13T11:27:58</time>
      </trkpt>
      <trkpt lat="45.88096" lon="6.92642">
        <ele>2589</ele>
        <time>2014-04-13T11:28:49</time>
      </trkpt>
      <trkpt lat="45.88108" lon="6.9267">
        <ele>2578</ele>
        <time>2014-04-13T11:29:04</time>
      </trkpt>
      <trkpt lat="45.88116" lon="6.92703">
        <ele>2576</ele>
        <time>2014-04-13T11:29:13</time>
      </trkpt>
      <trkpt lat="45.88105" lon="6.92734">
        <ele>2572</ele>
        <time>2014-04-13T11:29:24</time>
      </trkpt>
      <trkpt lat="45.88124" lon="6.92755">
        <ele>2569</ele>
        <time>2014-04-13T11:29:32</time>
      </trkpt>
      <trkpt lat="45.88127" lon="6.92787">
        <ele>2546</ele>
        <time>2014-04-13T11:30:42</time>
      </trkpt>
      <trkpt lat="45.88144" lon="6.9281">
        <ele>2536</ele>
        <time>2014-04-13T11:31:32</time>
      </trkpt>
      <trkpt lat="45.8813" lon="6.92841">
        <ele>2535</ele>
        <time>2014-04-13T11:31:39</time>
      </trkpt>
      <trkpt lat="45.88152" lon="6.92853">
        <ele>2533</ele>
        <time>2014-04-13T11:32:00</time>
      </trkpt>
      <trkpt lat="45.88163" lon="6.92882">
        <ele>2533</ele>
        <time>2014-04-13T11:32:09</time>
      </trkpt>
      <trkpt lat="45.88178" lon="6.92911">
        <ele>2531</ele>
        <time>2014-04-13T11:32:16</time>
      </trkpt>
      <trkpt lat="45.88207" lon="6.92911">
        <ele>2527</ele>
        <time>2014-04-13T11:32:26</time>
      </trkpt>
      <trkpt lat="45.88229" lon="6.92925">
        <ele>2530</ele>
        <time>2014-04-13T11:32:31</time>
      </trkpt>
      <trkpt lat="45.88223" lon="6.92956">
        <ele>2482</ele>
        <time>2014-04-13T11:35:53</time>
      </trkpt>
      <trkpt lat="45.88196" lon="6.92971">
        <ele>2479</ele>
        <time>2014-04-13T11:37:02</time>
      </trkpt>
      <trkpt lat="45.88202" lon="6.93008">
        <ele>2478</ele>
        <time>2014-04-13T11:37:22</time>
      </trkpt>
      <trkpt lat="45.88194" lon="6.93048">
        <ele>2473</ele>
        <time>2014-04-13T11:37:34</time>
      </trkpt>
      <trkpt lat="45.88176" lon="6.93075">
        <ele>2470</ele>
        <time>2014-04-13T11:37:37</time>
      </trkpt>
      <trkpt lat="45.88178" lon="6.93108">
        <ele>2485</ele>
        <time>2014-04-13T11:38:49</time>
      </trkpt>
      <trkpt lat="45.88188" lon="6.9314">
        <ele>2476</ele>
        <time>2014-04-13T11:38:52</time>
      </trkpt>
      <trkpt lat="45.88204" lon="6.93174">
        <ele>2469</ele>
        <time>2014-04-13T11:38:55</time>
      </trkpt>
      <trkpt lat="45.88217" lon="6.93211">
        <ele>2462</ele>
        <time>2014-04-13T11:38:58</time>
      </trkpt>
      <trkpt lat="45.88227" lon="6.93246">
        <ele>2456</ele>
        <time>2014-04-13T11:39:01</time>
      </trkpt>
      <trkpt lat="45.88235" lon="6.93279">
        <ele>2451</ele>
        <time>2014-04-13T11:39:04</time>
      </trkpt>
      <trkpt lat="45.88238" lon="6.93321">
        <ele>2442</ele>
        <time>2014-04-13T11:39:08</time>
      </trkpt>
      <trkpt lat="45.88242" lon="6.93358">
        <ele>2439</ele>
        <time>2014-04-13T11:39:12</time>
      </trkpt>
      <trkpt lat="45.88242" lon="6.93396">
        <ele>2434</ele>
        <time>2014-04-13T11:39:16</time>
      </trkpt>
      <trkpt lat="45.8824" lon="6.93431">
        <ele>2428</ele>
        <time>2014-04-13T11:39:20</time>
      </trkpt>
      <trkpt lat="45.88234" lon="6.93463">
        <ele>2423</ele>
        <time>2014-04-13T11:39:26</time>
      </trkpt>
      <trkpt lat="45.88227" lon="6.93494">
        <ele>2423</ele>
        <time>2014-04-13T11:39:33</time>
      </trkpt>
      <trkpt lat="45.88221" lon="6.93529">
        <ele>2421</ele>
        <time>2014-04-13T11:39:41</time>
      </trkpt>
      <trkpt lat="45.88214" lon="6.93567">
        <ele>2418</ele>
        <time>2014-04-13T11:39:47</time>
      </trkpt>
      <trkpt lat="45.88206" lon="6.936">
        <ele>2416</ele>
        <time>2014-04-13T11:39:52</time>
      </trkpt>
      <trkpt lat="45.88197" lon="6.93633">
        <ele>2414</ele>
        <time>2014-04-13T11:39:56</time>
      </trkpt>
      <trkpt lat="45.8819" lon="6.93669">
        <ele>2413</ele>
        <time>2014-04-13T11:40:01</time>
      </trkpt>
      <trkpt lat="45.88208" lon="6.9369">
        <ele>2393</ele>
        <time>2014-04-13T11:43:09</time>
      </trkpt>
      <trkpt lat="45.88233" lon="6.93695">
        <ele>2384</ele>
        <time>2014-04-13T11:43:16</time>
      </trkpt>
      <trkpt lat="45.88256" lon="6.93709">
        <ele>2378</ele>
        <time>2014-04-13T11:43:22</time>
      </trkpt>
      <trkpt lat="45.88278" lon="6.93719">
        <ele>2357</ele>
        <time>2014-04-13T11:43:43</time>
      </trkpt>
      <trkpt lat="45.88298" lon="6.9374">
        <ele>2353</ele>
        <time>2014-04-13T11:43:51</time>
      </trkpt>
      <trkpt lat="45.88321" lon="6.93744">
        <ele>2356</ele>
        <time>2014-04-13T11:45:22</time>
      </trkpt>
      <trkpt lat="45.88343" lon="6.93753">
        <ele>2331</ele>
        <time>2014-04-13T11:46:17</time>
      </trkpt>
      <trkpt lat="45.88367" lon="6.9374">
        <ele>2325</ele>
        <time>2014-04-13T11:46:23</time>
      </trkpt>
      <trkpt lat="45.88391" lon="6.93741">
        <ele>2323</ele>
        <time>2014-04-13T11:46:28</time>
      </trkpt>
      <trkpt lat="45.88415" lon="6.93747">
        <ele>2313</ele>
        <time>2014-04-13T11:46:49</time>
      </trkpt>
      <trkpt lat="45.88445" lon="6.93755">
        <ele>2310</ele>
        <time>2014-04-13T11:46:52</time>
      </trkpt>
      <trkpt lat="45.88474" lon="6.93762">
        <ele>2310</ele>
        <time>2014-04-13T11:46:55</time>
      </trkpt>
      <trkpt lat="45.88506" lon="6.93762">
        <ele>2305</ele>
        <time>2014-04-13T11:46:58</time>
      </trkpt>
      <trkpt lat="45.8854" lon="6.93758">
        <ele>2304</ele>
        <time>2014-04-13T11:47:01</time>
      </trkpt>
      <trkpt lat="45.88563" lon="6.93755">
        <ele>2302</ele>
        <time>2014-04-13T11:47:03</time>
      </trkpt>
      <trkpt lat="45.88585" lon="6.93755">
        <ele>2300</ele>
        <time>2014-04-13T11:47:05</time>
      </trkpt>
      <trkpt lat="45.88619" lon="6.93754">
        <ele>2295</ele>
        <time>2014-04-13T11:47:08</time>
      </trkpt>
      <trkpt lat="45.88642" lon="6.93751">
        <ele>2291</ele>
        <time>2014-04-13T11:47:10</time>
      </trkpt>
      <trkpt lat="45.88665" lon="6.93747">
        <ele>2288</ele>
        <time>2014-04-13T11:47:12</time>
      </trkpt>
      <trkpt lat="45.88689" lon="6.93745">
        <ele>2286</ele>
        <time>2014-04-13T11:47:14</time>
      </trkpt>
      <trkpt lat="45.88712" lon="6.93742">
        <ele>2283</ele>
        <time>2014-04-13T11:47:16</time>
      </trkpt>
      <trkpt lat="45.88735" lon="6.93738">
        <ele>2279</ele>
        <time>2014-04-13T11:47:18</time>
      </trkpt>
      <trkpt lat="45.88759" lon="6.93734">
        <ele>2276</ele>
        <time>2014-04-13T11:47:20</time>
      </trkpt>
      <trkpt lat="45.88783" lon="6.93732">
        <ele>2272</ele>
        <time>2014-04-13T11:47:22</time>
      </trkpt>
      <trkpt lat="45.88807" lon="6.93728">
        <ele>2269</ele>
        <time>2014-04-13T11:47:24</time>
      </trkpt>
      <trkpt lat="45.88831" lon="6.93724">
        <ele>2265</ele>
        <time>2014-04-13T11:47:26</time>
      </trkpt>
      <trkpt lat="45.88856" lon="6.93722">
        <ele>2260</ele>
        <time>2014-04-13T11:47:24</time>
      </trkpt>
      <trkpt lat="45.88882" lon="6.93719">
        <ele>2257</ele>
        <time>2014-04-13T11:47:26</time>
      </trkpt>
      <trkpt lat="45.88909" lon="6.93716">
        <ele>2255</ele>
        <time>2014-04-13T11:47:28</time>
      </trkpt>
      <trkpt lat="45.88936" lon="6.93714">
        <ele>2252</ele>
        <time>2014-04-13T11:47:30</time>
      </trkpt>
      <trkpt lat="45.88963" lon="6.9371">
        <ele>2249</ele>
        <time>2014-04-13T11:47:32</time>
      </trkpt>
      <trkpt lat="45.88989" lon="6.93706">
        <ele>2246</ele>
        <time>2014-04-13T11:47:34</time>
      </trkpt>
      <trkpt lat="45.89016" lon="6.93702">
        <ele>2242</ele>
        <time>2014-04-13T11:47:36</time>
      </trkpt>
      <trkpt lat="45.89041" lon="6.93697">
        <ele>2241</ele>
        <time>2014-04-13T11:47:38</time>
      </trkpt>
      <trkpt lat="45.89066" lon="6.93691">
        <ele>2237</ele>
        <time>2014-04-13T11:47:40</time>
      </trkpt>
      <trkpt lat="45.89092" lon="6.93683">
        <ele>2232</ele>
        <time>2014-04-13T11:47:42</time>
      </trkpt>
      <trkpt lat="45.89117" lon="6.93678">
        <ele>2229</ele>
        <time>2014-04-13T11:47:44</time>
      </trkpt>
      <trkpt lat="45.89143" lon="6.93675">
        <ele>2227</ele>
        <time>2014-04-13T11:47:46</time>
      </trkpt>
      <trkpt lat="45.89167" lon="6.93673">
        <ele>2225</ele>
        <time>2014-04-13T11:47:48</time>
      </trkpt>
      <trkpt lat="45.89191" lon="6.93671">
        <ele>2225</ele>
        <time>2014-04-13T11:47:50</time>
      </trkpt>
      <trkpt lat="45.89215" lon="6.93672">
        <ele>2225</ele>
        <time>2014-04-13T11:47:52</time>
      </trkpt>
      <trkpt lat="45.89239" lon="6.93672">
        <ele>2226</ele>
        <time>2014-04-13T11:47:54</time>
      </trkpt>
      <trkpt lat="45.89263" lon="6.93669">
        <ele>2226</ele>
        <time>2014-04-13T11:47:56</time>
      </trkpt>
      <trkpt lat="45.89287" lon="6.93664">
        <ele>2226</ele>
        <time>2014-04-13T11:47:58</time>
      </trkpt>
      <trkpt lat="45.89309" lon="6.93659">
        <ele>2224</ele>
        <time>2014-04-13T11:48:00</time>
      </trkpt>
      <trkpt lat="45.89332" lon="6.93654">
        <ele>2223</ele>
        <time>2014-04-13T11:48:02</time>
      </trkpt>
      <trkpt lat="45.89363" lon="6.93647">
        <ele>2220</ele>
        <time>2014-04-13T11:48:05</time>
      </trkpt>
      <trkpt lat="45.8939" lon="6.93641">
        <ele>2218</ele>
        <time>2014-04-13T11:48:08</time>
      </trkpt>
      <trkpt lat="45.89414" lon="6.93636">
        <ele>2216</ele>
        <time>2014-04-13T11:48:11</time>
      </trkpt>
      <trkpt lat="45.89437" lon="6.93631">
        <ele>2215</ele>
        <time>2014-04-13T11:48:14</time>
      </trkpt>
      <trkpt lat="45.89463" lon="6.93625">
        <ele>2214</ele>
        <time>2014-04-13T11:48:18</time>
      </trkpt>
      <trkpt lat="45.89489" lon="6.9362">
        <ele>2211</ele>
        <time>2014-04-13T11:48:22</time>
      </trkpt>
      <trkpt lat="45.89517" lon="6.93618">
        <ele>2207</ele>
        <time>2014-04-13T11:48:26</time>
      </trkpt>
      <trkpt lat="45.89545" lon="6.93618">
        <ele>2203</ele>
        <time>2014-04-13T11:48:30</time>
      </trkpt>
      <trkpt lat="45.89572" lon="6.93618">
        <ele>2196</ele>
        <time>2014-04-13T11:48:34</time>
      </trkpt>
      <trkpt lat="45.896" lon="6.93619">
        <ele>2192</ele>
        <time>2014-04-13T11:48:38</time>
      </trkpt>
      <trkpt lat="45.89627" lon="6.9362">
        <ele>2190</ele>
        <time>2014-04-13T11:48:42</time>
      </trkpt>
      <trkpt lat="45.89654" lon="6.93619">
        <ele>2188</ele>
        <time>2014-04-13T11:48:46</time>
      </trkpt>
      <trkpt lat="45.89678" lon="6.93617">
        <ele>2187</ele>
        <time>2014-04-13T11:48:50</time>
      </trkpt>
      <trkpt lat="45.89705" lon="6.93614">
        <ele>2189</ele>
        <time>2014-04-13T11:48:55</time>
      </trkpt>
      <trkpt lat="45.89728" lon="6.93611">
        <ele>2188</ele>
        <time>2014-04-13T11:49:01</time>
      </trkpt>
      <trkpt lat="45.89753" lon="6.93608">
        <ele>2188</ele>
        <time>2014-04-13T11:49:09</time>
      </trkpt>
      <trkpt lat="45.89775" lon="6.93606">
        <ele>2187</ele>
        <time>2014-04-13T11:49:16</time>
      </trkpt>
      <trkpt lat="45.898" lon="6.93604">
        <ele>2184</ele>
        <time>2014-04-13T11:49:22</time>
      </trkpt>
      <trkpt lat="45.89824" lon="6.93605">
        <ele>2182</ele>
        <time>2014-04-13T11:49:27</time>
      </trkpt>
      <trkpt lat="45.89851" lon="6.93607">
        <ele>2181</ele>
        <time>2014-04-13T11:49:32</time>
      </trkpt>
      <trkpt lat="45.89874" lon="6.93606">
        <ele>2180</ele>
        <time>2014-04-13T11:49:36</time>
      </trkpt>
      <trkpt lat="45.89899" lon="6.93608">
        <ele>2179</ele>
        <time>2014-04-13T11:49:40</time>
      </trkpt>
      <trkpt lat="45.89926" lon="6.9361">
        <ele>2178</ele>
        <time>2014-04-13T11:49:45</time>
      </trkpt>
      <trkpt lat="45.89949" lon="6.93614">
        <ele>2176</ele>
        <time>2014-04-13T11:49:50</time>
      </trkpt>
      <trkpt lat="45.89972" lon="6.93621">
        <ele>2175</ele>
        <time>2014-04-13T11:49:56</time>
      </trkpt>
      <trkpt lat="45.89995" lon="6.9363">
        <ele>2173</ele>
        <time>2014-04-13T11:50:03</time>
      </trkpt>
      <trkpt lat="45.90017" lon="6.93639">
        <ele>2171</ele>
        <time>2014-04-13T11:50:11</time>
      </trkpt>
      <trkpt lat="45.9004" lon="6.93646">
        <ele>2167</ele>
        <time>2014-04-13T11:50:18</time>
      </trkpt>
      <trkpt lat="45.90062" lon="6.93651">
        <ele>2164</ele>
        <time>2014-04-13T11:50:23</time>
      </trkpt>
      <trkpt lat="45.90087" lon="6.93654">
        <ele>2162</ele>
        <time>2014-04-13T11:50:28</time>
      </trkpt>
      <trkpt lat="45.90113" lon="6.93656">
        <ele>2159</ele>
        <time>2014-04-13T11:50:33</time>
      </trkpt>
      <trkpt lat="45.90137" lon="6.93662">
        <ele>2158</ele>
        <time>2014-04-13T11:50:38</time>
      </trkpt>
      <trkpt lat="45.90162" lon="6.93669">
        <ele>2156</ele>
        <time>2014-04-13T11:50:42</time>
      </trkpt>
      <trkpt lat="45.90187" lon="6.93672">
        <ele>2152</ele>
        <time>2014-04-13T11:50:45</time>
      </trkpt>
      <trkpt lat="45.90213" lon="6.93671">
        <ele>2150</ele>
        <time>2014-04-13T11:50:48</time>
      </trkpt>
      <trkpt lat="45.90239" lon="6.93666">
        <ele>2146</ele>
        <time>2014-04-13T11:50:51</time>
      </trkpt>
      <trkpt lat="45.90265" lon="6.93665">
        <ele>2142</ele>
        <time>2014-04-13T11:50:55</time>
      </trkpt>
      <trkpt lat="45.90286" lon="6.93685">
        <ele>2140</ele>
        <time>2014-04-13T11:51:05</time>
      </trkpt>
      <trkpt lat="45.90308" lon="6.93674">
        <ele>2139</ele>
        <time>2014-04-13T12:24:36</time>
      </trkpt>
      <trkpt lat="45.9033" lon="6.93662">
        <ele>2136</ele>
        <time>2014-04-13T12:24:49</time>
      </trkpt>
      <trkpt lat="45.90351" lon="6.93674">
        <ele>2136</ele>
        <time>2014-04-13T12:24:59</time>
      </trkpt>
      <trkpt lat="45.90365" lon="6.93711">
        <ele>2133</ele>
        <time>2014-04-13T12:25:05</time>
      </trkpt>
      <trkpt lat="45.90366" lon="6.93744">
        <ele>2129</ele>
        <time>2014-04-13T12:25:26</time>
      </trkpt>
      <trkpt lat="45.90379" lon="6.93778">
        <ele>2122</ele>
        <time>2014-04-13T12:25:32</time>
      </trkpt>
      <trkpt lat="45.90398" lon="6.93802">
        <ele>2116</ele>
        <time>2014-04-13T12:25:37</time>
      </trkpt>
      <trkpt lat="45.90418" lon="6.93819">
        <ele>2111</ele>
        <time>2014-04-13T12:25:43</time>
      </trkpt>
      <trkpt lat="45.9044" lon="6.93841">
        <ele>2099</ele>
        <time>2014-04-13T12:25:59</time>
      </trkpt>
      <trkpt lat="45.90469" lon="6.9386">
        <ele>2096</ele>
        <time>2014-04-13T12:26:02</time>
      </trkpt>
      <trkpt lat="45.90493" lon="6.93871">
        <ele>2095</ele>
        <time>2014-04-13T12:26:04</time>
      </trkpt>
      <trkpt lat="45.90521" lon="6.93886">
        <ele>2093</ele>
        <time>2014-04-13T12:26:06</time>
      </trkpt>
      <trkpt lat="45.90548" lon="6.93892">
        <ele>2089</ele>
        <time>2014-04-13T12:26:08</time>
      </trkpt>
      <trkpt lat="45.90572" lon="6.93896">
        <ele>2087</ele>
        <time>2014-04-13T12:26:10</time>
      </trkpt>
      <trkpt lat="45.90595" lon="6.93898">
        <ele>2084</ele>
        <time>2014-04-13T12:26:12</time>
      </trkpt>
      <trkpt lat="45.90624" lon="6.939">
        <ele>2082</ele>
        <time>2014-04-13T12:26:15</time>
      </trkpt>
      <trkpt lat="45.9065" lon="6.939">
        <ele>2079</ele>
        <time>2014-04-13T12:26:18</time>
      </trkpt>
      <trkpt lat="45.90673" lon="6.93898">
        <ele>2075</ele>
        <time>2014-04-13T12:26:21</time>
      </trkpt>
      <trkpt lat="45.90698" lon="6.939">
        <ele>2073</ele>
        <time>2014-04-13T12:26:25</time>
      </trkpt>
      <trkpt lat="45.90721" lon="6.93903">
        <ele>2070</ele>
        <time>2014-04-13T12:26:29</time>
      </trkpt>
      <trkpt lat="45.90746" lon="6.93906">
        <ele>2066</ele>
        <time>2014-04-13T12:26:33</time>
      </trkpt>
      <trkpt lat="45.90772" lon="6.93907">
        <ele>2063</ele>
        <time>2014-04-13T12:26:37</time>
      </trkpt>
      <trkpt lat="45.90798" lon="6.93906">
        <ele>2061</ele>
        <time>2014-04-13T12:26:41</time>
      </trkpt>
      <trkpt lat="45.90827" lon="6.93904">
        <ele>2058</ele>
        <time>2014-04-13T12:26:45</time>
      </trkpt>
      <trkpt lat="45.90855" lon="6.939">
        <ele>2055</ele>
        <time>2014-04-13T12:26:49</time>
      </trkpt>
      <trkpt lat="45.90881" lon="6.93895">
        <ele>2053</ele>
        <time>2014-04-13T12:26:53</time>
      </trkpt>
      <trkpt lat="45.90907" lon="6.93888">
        <ele>2051</ele>
        <time>2014-04-13T12:26:57</time>
      </trkpt>
      <trkpt lat="45.90932" lon="6.9388">
        <ele>2049</ele>
        <time>2014-04-13T12:27:01</time>
      </trkpt>
      <trkpt lat="45.90959" lon="6.93873">
        <ele>2047</ele>
        <time>2014-04-13T12:27:05</time>
      </trkpt>
      <trkpt lat="45.90985" lon="6.93864">
        <ele>2044</ele>
        <time>2014-04-13T12:27:09</time>
      </trkpt>
      <trkpt lat="45.91009" lon="6.93856">
        <ele>2042</ele>
        <time>2014-04-13T12:27:13</time>
      </trkpt>
      <trkpt lat="45.91032" lon="6.93852">
        <ele>2039</ele>
        <time>2014-04-13T12:27:17</time>
      </trkpt>
      <trkpt lat="45.91059" lon="6.93841">
        <ele>2038</ele>
        <time>2014-04-13T12:27:22</time>
      </trkpt>
      <trkpt lat="45.91082" lon="6.93831">
        <ele>2037</ele>
        <time>2014-04-13T12:27:27</time>
      </trkpt>
      <trkpt lat="45.91106" lon="6.93819">
        <ele>2035</ele>
        <time>2014-04-13T12:27:32</time>
      </trkpt>
      <trkpt lat="45.9113" lon="6.93811">
        <ele>2034</ele>
        <time>2014-04-13T12:27:37</time>
      </trkpt>
      <trkpt lat="45.91154" lon="6.938">
        <ele>2033</ele>
        <time>2014-04-13T12:27:43</time>
      </trkpt>
      <trkpt lat="45.91176" lon="6.93791">
        <ele>2032</ele>
        <time>2014-04-13T12:27:49</time>
      </trkpt>
      <trkpt lat="45.91201" lon="6.93781">
        <ele>2030</ele>
        <time>2014-04-13T12:27:56</time>
      </trkpt>
      <trkpt lat="45.91225" lon="6.93768">
        <ele>2028</ele>
        <time>2014-04-13T12:28:03</time>
      </trkpt>
      <trkpt lat="45.91245" lon="6.93753">
        <ele>2026</ele>
        <time>2014-04-13T12:28:09</time>
      </trkpt>
      <trkpt lat="45.91268" lon="6.93736">
        <ele>2023</ele>
        <time>2014-04-13T12:28:15</time>
      </trkpt>
      <trkpt lat="45.91289" lon="6.93719">
        <ele>2021</ele>
        <time>2014-04-13T12:28:20</time>
      </trkpt>
      <trkpt lat="45.91312" lon="6.93698">
        <ele>2018</ele>
        <time>2014-04-13T12:28:25</time>
      </trkpt>
      <trkpt lat="45.9133" lon="6.93678">
        <ele>2016</ele>
        <time>2014-04-13T12:28:29</time>
      </trkpt>
      <trkpt lat="45.91347" lon="6.93655">
        <ele>2013</ele>
        <time>2014-04-13T12:28:33</time>
      </trkpt>
      <trkpt lat="45.91366" lon="6.93632">
        <ele>2010</ele>
        <time>2014-04-13T12:28:37</time>
      </trkpt>
      <trkpt lat="45.91385" lon="6.93604">
        <ele>2007</ele>
        <time>2014-04-13T12:28:41</time>
      </trkpt>
      <trkpt lat="45.91405" lon="6.93573">
        <ele>2004</ele>
        <time>2014-04-13T12:28:45</time>
      </trkpt>
      <trkpt lat="45.91422" lon="6.9354">
        <ele>2003</ele>
        <time>2014-04-13T12:28:49</time>
      </trkpt>
      <trkpt lat="45.91439" lon="6.93509">
        <ele>2002</ele>
        <time>2014-04-13T12:28:53</time>
      </trkpt>
      <trkpt lat="45.91458" lon="6.93486">
        <ele>1997</ele>
        <time>2014-04-13T12:29:56</time>
      </trkpt>
      <trkpt lat="45.91481" lon="6.93465">
        <ele>1990</ele>
        <time>2014-04-13T12:30:02</time>
      </trkpt>
      <trkpt lat="45.91509" lon="6.93449">
        <ele>1988</ele>
        <time>2014-04-13T12:30:06</time>
      </trkpt>
      <trkpt lat="45.91531" lon="6.93426">
        <ele>1985</ele>
        <time>2014-04-13T12:30:09</time>
      </trkpt>
      <trkpt lat="45.91545" lon="6.93394">
        <ele>1983</ele>
        <time>2014-04-13T12:30:12</time>
      </trkpt>
      <trkpt lat="45.9157" lon="6.93371">
        <ele>1978</ele>
        <time>2014-04-13T12:30:15</time>
      </trkpt>
      <trkpt lat="45.91582" lon="6.93334">
        <ele>1977</ele>
        <time>2014-04-13T12:30:18</time>
      </trkpt>
      <trkpt lat="45.91596" lon="6.93298">
        <ele>1975</ele>
        <time>2014-04-13T12:30:21</time>
      </trkpt>
      <trkpt lat="45.91609" lon="6.93262">
        <ele>1970</ele>
        <time>2014-04-13T12:30:24</time>
      </trkpt>
      <trkpt lat="45.9162" lon="6.9323">
        <ele>1968</ele>
        <time>2014-04-13T12:30:27</time>
      </trkpt>
      <trkpt lat="45.91629" lon="6.93199">
        <ele>1966</ele>
        <time>2014-04-13T12:30:31</time>
      </trkpt>
      <trkpt lat="45.91639" lon="6.93168">
        <ele>1963</ele>
        <time>2014-04-13T12:30:38</time>
      </trkpt>
      <trkpt lat="45.91651" lon="6.93138">
        <ele>1962</ele>
        <time>2014-04-13T12:30:47</time>
      </trkpt>
      <trkpt lat="45.9166" lon="6.93105">
        <ele>1962</ele>
        <time>2014-04-13T12:30:56</time>
      </trkpt>
      <trkpt lat="45.91672" lon="6.93075">
        <ele>1957</ele>
        <time>2014-04-13T12:31:06</time>
      </trkpt>
      <trkpt lat="45.9168" lon="6.93045">
        <ele>1953</ele>
        <time>2014-04-13T12:31:14</time>
      </trkpt>
      <trkpt lat="45.91694" lon="6.93018">
        <ele>1949</ele>
        <time>2014-04-13T12:31:20</time>
      </trkpt>
      <trkpt lat="45.91711" lon="6.92988">
        <ele>1945</ele>
        <time>2014-04-13T12:31:26</time>
      </trkpt>
      <trkpt lat="45.91727" lon="6.92962">
        <ele>1942</ele>
        <time>2014-04-13T12:31:32</time>
      </trkpt>
      <trkpt lat="45.91744" lon="6.92935">
        <ele>1939</ele>
        <time>2014-04-13T12:31:38</time>
      </trkpt>
      <trkpt lat="45.91761" lon="6.92907">
        <ele>1936</ele>
        <time>2014-04-13T12:31:44</time>
      </trkpt>
      <trkpt lat="45.91779" lon="6.92878">
        <ele>1932</ele>
        <time>2014-04-13T12:31:50</time>
      </trkpt>
      <trkpt lat="45.91794" lon="6.92852">
        <ele>1928</ele>
        <time>2014-04-13T12:31:55</time>
      </trkpt>
      <trkpt lat="45.91808" lon="6.92825">
        <ele>1923</ele>
        <time>2014-04-13T12:32:00</time>
      </trkpt>
      <trkpt lat="45.9182" lon="6.92798">
        <ele>1921</ele>
        <time>2014-04-13T12:32:05</time>
      </trkpt>
      <trkpt lat="45.91835" lon="6.9277">
        <ele>1919</ele>
        <time>2014-04-13T12:32:10</time>
      </trkpt>
      <trkpt lat="45.91854" lon="6.92742">
        <ele>1916</ele>
        <time>2014-04-13T12:32:15</time>
      </trkpt>
      <trkpt lat="45.91869" lon="6.92717">
        <ele>1914</ele>
        <time>2014-04-13T12:32:19</time>
      </trkpt>
      <trkpt lat="45.91884" lon="6.92688">
        <ele>1911</ele>
        <time>2014-04-13T12:32:24</time>
      </trkpt>
      <trkpt lat="45.91901" lon="6.92662">
        <ele>1908</ele>
        <time>2014-04-13T12:32:29</time>
      </trkpt>
      <trkpt lat="45.91918" lon="6.92636">
        <ele>1905</ele>
        <time>2014-04-13T12:32:34</time>
      </trkpt>
      <trkpt lat="45.91938" lon="6.92611">
        <ele>1902</ele>
        <time>2014-04-13T12:32:39</time>
      </trkpt>
      <trkpt lat="45.91958" lon="6.92598">
        <ele>1900</ele>
        <time>2014-04-13T12:32:48</time>
      </trkpt>
      <trkpt lat="45.91981" lon="6.9259">
        <ele>1896</ele>
        <time>2014-04-13T12:32:53</time>
      </trkpt>
      <trkpt lat="45.92001" lon="6.92576">
        <ele>1892</ele>
        <time>2014-04-13T12:32:58</time>
      </trkpt>
      <trkpt lat="45.92024" lon="6.92558">
        <ele>1887</ele>
        <time>2014-04-13T12:33:04</time>
      </trkpt>
      <trkpt lat="45.92047" lon="6.92544">
        <ele>1883</ele>
        <time>2014-04-13T12:33:09</time>
      </trkpt>
      <trkpt lat="45.92071" lon="6.92536">
        <ele>1880</ele>
        <time>2014-04-13T12:33:15</time>
      </trkpt>
      <trkpt lat="45.92093" lon="6.92523">
        <ele>1877</ele>
        <time>2014-04-13T12:33:23</time>
      </trkpt>
      <trkpt lat="45.92118" lon="6.92507">
        <ele>1873</ele>
        <time>2014-04-13T12:33:29</time>
      </trkpt>
      <trkpt lat="45.9214" lon="6.92487">
        <ele>1868</ele>
        <time>2014-04-13T12:33:34</time>
      </trkpt>
      <trkpt lat="45.9216" lon="6.9247">
        <ele>1863</ele>
        <time>2014-04-13T12:33:38</time>
      </trkpt>
      <trkpt lat="45.92181" lon="6.92454">
        <ele>1856</ele>
        <time>2014-04-13T12:34:59</time>
      </trkpt>
      <trkpt lat="45.92202" lon="6.92436">
        <ele>1853</ele>
        <time>2014-04-13T12:35:04</time>
      </trkpt>
      <trkpt lat="45.92218" lon="6.9241">
        <ele>1853</ele>
        <time>2014-04-13T12:35:09</time>
      </trkpt>
      <trkpt lat="45.9224" lon="6.92391">
        <ele>1852</ele>
        <time>2014-04-13T12:35:16</time>
      </trkpt>
      <trkpt lat="45.92258" lon="6.92372">
        <ele>1849</ele>
        <time>2014-04-13T12:35:21</time>
      </trkpt>
      <trkpt lat="45.92277" lon="6.92347">
        <ele>1846</ele>
        <time>2014-04-13T12:35:26</time>
      </trkpt>
      <trkpt lat="45.92302" lon="6.92334">
        <ele>1843</ele>
        <time>2014-04-13T12:35:31</time>
      </trkpt>
      <trkpt lat="45.92327" lon="6.92323">
        <ele>1839</ele>
        <time>2014-04-13T12:35:36</time>
      </trkpt>
      <trkpt lat="45.92349" lon="6.92311">
        <ele>1832</ele>
        <time>2014-04-13T12:35:40</time>
      </trkpt>
      <trkpt lat="45.92373" lon="6.92302">
        <ele>1826</ele>
        <time>2014-04-13T12:35:44</time>
      </trkpt>
      <trkpt lat="45.92395" lon="6.92287">
        <ele>1822</ele>
        <time>2014-04-13T12:35:48</time>
      </trkpt>
      <trkpt lat="45.92419" lon="6.92278">
        <ele>1819</ele>
        <time>2014-04-13T12:35:52</time>
      </trkpt>
      <trkpt lat="45.92445" lon="6.92272">
        <ele>1816</ele>
        <time>2014-04-13T12:35:57</time>
      </trkpt>
      <trkpt lat="45.9247" lon="6.92261">
        <ele>1814</ele>
        <time>2014-04-13T12:36:02</time>
      </trkpt>
      <trkpt lat="45.92496" lon="6.92253">
        <ele>1811</ele>
        <time>2014-04-13T12:36:07</time>
      </trkpt>
      <trkpt lat="45.92519" lon="6.92248">
        <ele>1810</ele>
        <time>2014-04-13T12:36:12</time>
      </trkpt>
      <trkpt lat="45.92544" lon="6.92247">
        <ele>1809</ele>
        <time>2014-04-13T12:36:20</time>
      </trkpt>
      <trkpt lat="45.92567" lon="6.92236">
        <ele>1808</ele>
        <time>2014-04-13T12:36:31</time>
      </trkpt>
      <trkpt lat="45.92588" lon="6.92221">
        <ele>1805</ele>
        <time>2014-04-13T12:36:37</time>
      </trkpt>
      <trkpt lat="45.92615" lon="6.92216">
        <ele>1802</ele>
        <time>2014-04-13T12:36:43</time>
      </trkpt>
      <trkpt lat="45.92638" lon="6.92197">
        <ele>1798</ele>
        <time>2014-04-13T12:36:48</time>
      </trkpt>
      <trkpt lat="45.92658" lon="6.92182">
        <ele>1794</ele>
        <time>2014-04-13T12:36:54</time>
      </trkpt>
      <trkpt lat="45.92681" lon="6.92181">
        <ele>1794</ele>
        <time>2014-04-13T12:37:35</time>
      </trkpt>
      <trkpt lat="45.92705" lon="6.92187">
        <ele>1789</ele>
        <time>2014-04-13T12:39:41</time>
      </trkpt>
      <trkpt lat="45.92727" lon="6.92193">
        <ele>1786</ele>
        <time>2014-04-13T12:39:47</time>
      </trkpt>
      <trkpt lat="45.92749" lon="6.922">
        <ele>1785</ele>
        <time>2014-04-13T12:40:00</time>
      </trkpt>
      <trkpt lat="45.92771" lon="6.92212">
        <ele>1785</ele>
        <time>2014-04-13T12:40:20</time>
      </trkpt>
      <trkpt lat="45.92794" lon="6.92214">
        <ele>1783</ele>
        <time>2014-04-13T12:40:29</time>
      </trkpt>
      <trkpt lat="45.92818" lon="6.92219">
        <ele>1785</ele>
        <time>2014-04-13T12:40:42</time>
      </trkpt>
      <trkpt lat="45.92844" lon="6.92221">
        <ele>1779</ele>
        <time>2014-04-13T12:40:48</time>
      </trkpt>
      <trkpt lat="45.92869" lon="6.92228">
        <ele>1775</ele>
        <time>2014-04-13T12:40:52</time>
      </trkpt>
      <trkpt lat="45.92893" lon="6.92234">
        <ele>1772</ele>
        <time>2014-04-13T12:40:56</time>
      </trkpt>
      <trkpt lat="45.92916" lon="6.9223">
        <ele>1769</ele>
        <time>2014-04-13T12:41:31</time>
      </trkpt>
      <trkpt lat="45.92941" lon="6.92228">
        <ele>1762</ele>
        <time>2014-04-13T12:41:43</time>
      </trkpt>
      <trkpt lat="45.92928" lon="6.922">
        <ele>1760</ele>
        <time>2014-04-13T12:41:56</time>
      </trkpt>
      <trkpt lat="45.92942" lon="6.92174">
        <ele>1755</ele>
        <time>2014-04-13T12:44:16</time>
      </trkpt>
      <trkpt lat="45.92964" lon="6.92183">
        <ele>1751</ele>
        <time>2014-04-13T12:44:23</time>
      </trkpt>
      <trkpt lat="45.92987" lon="6.92193">
        <ele>1752</ele>
        <time>2014-04-13T12:44:36</time>
      </trkpt>
      <trkpt lat="45.93002" lon="6.92169">
        <ele>1756</ele>
        <time>2014-04-13T12:44:48</time>
      </trkpt>
      <trkpt lat="45.93024" lon="6.92177">
        <ele>1746</ele>
        <time>2014-04-13T12:48:25</time>
      </trkpt>
      <trkpt lat="45.93015" lon="6.92147">
        <ele>1784</ele>
        <time>2014-04-13T12:51:44</time>
      </trkpt>
      <trkpt lat="45.93016" lon="6.92114">
        <ele>1776</ele>
        <time>2014-04-13T12:53:09</time>
      </trkpt>
      <trkpt lat="45.93032" lon="6.92089">
        <ele>1792</ele>
        <time>2014-04-13T12:53:50</time>
      </trkpt>
      <trkpt lat="45.93048" lon="6.92066">
        <ele>1790</ele>
        <time>2014-04-13T12:55:01</time>
      </trkpt>
      <trkpt lat="45.93067" lon="6.9205">
        <ele>1786</ele>
        <time>2014-04-13T12:56:18</time>
      </trkpt>
      <trkpt lat="45.93081" lon="6.92024">
        <ele>1807</ele>
        <time>2014-04-13T12:58:39</time>
      </trkpt>
      <trkpt lat="45.93101" lon="6.9201">
        <ele>1813</ele>
        <time>2014-04-13T12:59:09</time>
      </trkpt>
      <trkpt lat="45.93122" lon="6.91998">
        <ele>1814</ele>
        <time>2014-04-13T12:59:33</time>
      </trkpt>
      <trkpt lat="45.93144" lon="6.91991">
        <ele>1817</ele>
        <time>2014-04-13T13:00:00</time>
      </trkpt>
      <trkpt lat="45.93204" lon="6.91744">
        <ele>1813</ele>
        <time>2014-04-13T13:10:06</time>
      </trkpt>
      <trkpt lat="45.93216" lon="6.91716">
        <ele>1816</ele>
        <time>2014-04-13T13:10:09</time>
      </trkpt>
      <trkpt lat="45.93224" lon="6.91682">
        <ele>1820</ele>
        <time>2014-04-13T13:10:14</time>
      </trkpt>
      <trkpt lat="45.9322" lon="6.91714">
        <ele>1831</ele>
        <time>2014-04-13T13:11:13</time>
      </trkpt>
      <trkpt lat="45.93217" lon="6.9168">
        <ele>1842</ele>
        <time>2014-04-13T13:11:49</time>
      </trkpt>
      <trkpt lat="45.93233" lon="6.9171">
        <ele>1842</ele>
        <time>2014-04-13T13:11:53</time>
      </trkpt>
      <trkpt lat="45.93236" lon="6.91769">
        <ele>1842</ele>
        <time>2014-04-13T13:12:10</time>
      </trkpt>
      <trkpt lat="45.93212" lon="6.91767">
        <ele>1846</ele>
        <time>2014-04-13T13:12:15</time>
      </trkpt>
      <trkpt lat="45.93199" lon="6.91741">
        <ele>1855</ele>
        <time>2014-04-13T13:12:21</time>
      </trkpt>
      <trkpt lat="45.93197" lon="6.91707">
        <ele>1884</ele>
        <time>2014-04-13T13:13:37</time>
      </trkpt>
      <trkpt lat="45.9319" lon="6.91739">
        <ele>1933</ele>
        <time>2014-04-13T13:14:24</time>
      </trkpt>
    </trkseg>
  </trk>
</gpx>